createdAt,value
2018-03-15T00:01:43.024Z,2.50
2018-03-15T00:04:11.161Z,2.50
2018-03-15T00:06:39.326Z,2.50
2018-03-15T00:09:08.225Z,2.50
2018-03-15T00:11:36.394Z,2.70
2018-03-15T00:14:05.285Z,2.50
2018-03-15T00:16:33.420Z,2.50
2018-03-15T00:19:01.576Z,2.50
2018-03-15T00:21:29.705Z,2.50
2018-03-15T00:23:57.858Z,2.50
2018-03-15T00:26:25.995Z,2.50
2018-03-15T00:28:54.150Z,2.50
2018-03-15T00:31:22.280Z,2.50
2018-03-15T00:33:50.445Z,2.50
2018-03-15T00:36:18.573Z,2.50
2018-03-15T00:38:46.738Z,2.50
2018-03-15T00:41:14.870Z,2.50
2018-03-15T00:43:43.029Z,2.60
2018-03-15T00:46:11.163Z,2.60
2018-03-15T00:48:39.318Z,2.60
2018-03-15T00:51:07.454Z,2.60
2018-03-15T00:53:35.615Z,2.60
2018-03-15T00:56:03.762Z,2.60
2018-03-15T00:58:31.920Z,2.50
2018-03-15T01:01:00.057Z,2.60
2018-03-15T01:03:28.214Z,2.60
2018-03-15T01:05:56.348Z,2.60
2018-03-15T01:08:24.494Z,2.50
2018-03-15T01:10:53.394Z,2.50
2018-03-15T01:13:21.562Z,2.70
2018-03-15T01:15:50.457Z,2.50
2018-03-15T01:18:18.614Z,2.50
2018-03-15T01:20:47.519Z,2.50
2018-03-15T01:23:15.692Z,2.50
2018-03-15T01:25:44.581Z,2.50
2018-03-15T01:28:12.717Z,2.70
2018-03-15T01:30:40.874Z,2.50
2018-03-15T01:33:09.010Z,2.50
2018-03-15T01:35:37.171Z,2.50
2018-03-15T01:38:05.297Z,2.50
2018-03-15T01:40:33.465Z,2.50
2018-03-15T01:43:01.591Z,2.50
2018-03-15T01:45:29.748Z,2.50
2018-03-15T01:47:57.884Z,2.50
2018-03-15T01:50:26.046Z,2.40
2018-03-15T01:52:54.187Z,2.50
2018-03-15T01:55:22.343Z,2.50
2018-03-15T01:57:50.482Z,2.40
2018-03-15T02:00:18.642Z,2.40
2018-03-15T02:02:46.777Z,2.40
2018-03-15T02:05:14.939Z,2.40
2018-03-15T02:07:43.066Z,2.40
2018-03-15T02:10:11.227Z,2.40
2018-03-15T02:12:39.368Z,2.40
2018-03-15T02:15:07.531Z,2.40
2018-03-15T02:17:35.676Z,2.40
2018-03-15T02:20:03.835Z,2.40
2018-03-15T02:22:31.972Z,2.40
2018-03-15T02:25:00.129Z,2.40
2018-03-15T02:27:28.273Z,2.40
2018-03-15T02:29:56.445Z,2.40
2018-03-15T02:32:24.578Z,2.40
2018-03-15T02:34:52.734Z,2.40
2018-03-15T02:37:20.877Z,2.40
2018-03-15T02:39:49.039Z,2.40
2018-03-15T02:42:17.175Z,2.30
2018-03-15T02:44:45.307Z,2.40
2018-03-15T02:47:13.469Z,2.30
2018-03-15T02:49:41.613Z,2.30
2018-03-15T02:52:09.772Z,2.30
2018-03-15T02:54:37.901Z,2.30
2018-03-15T02:57:06.065Z,2.30
2018-03-15T02:59:34.199Z,2.30
2018-03-15T03:02:02.371Z,2.30
2018-03-15T03:04:30.527Z,2.30
2018-03-15T03:06:58.691Z,2.30
2018-03-15T03:09:26.820Z,2.30
2018-03-15T03:11:54.979Z,2.30
2018-03-15T03:14:23.109Z,2.30
2018-03-15T03:16:51.265Z,2.30
2018-03-15T03:19:20.167Z,2.30
2018-03-15T03:21:48.326Z,2.30
2018-03-15T03:24:16.462Z,2.20
2018-03-15T03:26:44.624Z,2.20
2018-03-15T03:29:12.763Z,2.20
2018-03-15T03:31:40.930Z,2.20
2018-03-15T03:34:09.824Z,2.20
2018-03-15T03:36:37.961Z,2.20
2018-03-15T03:39:06.118Z,2.20
2018-03-15T03:41:34.250Z,2.30
2018-03-15T03:44:03.174Z,2.30
2018-03-15T03:46:31.305Z,2.30
2018-03-15T03:48:59.467Z,2.30
2018-03-15T03:51:27.600Z,2.20
2018-03-15T03:53:55.754Z,2.30
2018-03-15T03:56:23.895Z,2.30
2018-03-15T03:58:52.058Z,2.30
2018-03-15T04:01:20.189Z,2.30
2018-03-15T04:03:48.355Z,2.30
2018-03-15T04:06:16.486Z,2.30
2018-03-15T04:08:44.650Z,2.20
2018-03-15T04:11:12.790Z,2.20
2018-03-15T04:13:40.949Z,2.30
2018-03-15T04:16:09.080Z,2.20
2018-03-15T04:18:38.027Z,2.20
2018-03-15T04:21:06.165Z,2.30
2018-03-15T04:23:34.322Z,2.20
2018-03-15T04:26:02.458Z,2.20
2018-03-15T04:28:30.614Z,2.20
2018-03-15T04:30:58.742Z,2.20
2018-03-15T04:33:26.898Z,2.20
2018-03-15T04:35:55.031Z,2.20
2018-03-15T04:38:23.194Z,2.20
2018-03-15T04:40:51.321Z,2.20
2018-03-15T04:43:19.492Z,2.20
2018-03-15T04:45:47.622Z,2.20
2018-03-15T04:48:15.782Z,2.20
2018-03-15T04:50:43.913Z,2.20
2018-03-15T04:53:12.094Z,2.20
2018-03-15T04:55:40.234Z,2.20
2018-03-15T04:58:08.367Z,2.20
2018-03-15T05:00:36.528Z,2.20
2018-03-15T05:03:04.653Z,2.20
2018-03-15T05:05:32.809Z,2.20
2018-03-15T05:08:00.950Z,2.20
2018-03-15T05:10:29.882Z,2.10
2018-03-15T05:12:58.027Z,2.10
2018-03-15T05:15:26.189Z,2.10
2018-03-15T05:17:54.330Z,2.10
2018-03-15T05:20:22.498Z,2.10
2018-03-15T05:22:50.647Z,2.10
2018-03-15T05:25:18.812Z,2.10
2018-03-15T05:27:46.941Z,2.10
2018-03-15T05:30:15.100Z,2.10
2018-03-15T05:32:43.235Z,2.00
2018-03-15T05:35:11.400Z,2.10
2018-03-15T05:37:39.525Z,2.00
2018-03-15T05:40:07.691Z,2.00
2018-03-15T05:42:35.825Z,2.00
2018-03-15T05:45:03.982Z,2.00
2018-03-15T05:47:32.122Z,2.00
2018-03-15T05:50:00.283Z,2.00
2018-03-15T05:52:28.415Z,2.00
2018-03-15T05:54:56.579Z,2.00
2018-03-15T05:57:24.749Z,2.00
2018-03-15T05:59:52.910Z,2.00
2018-03-15T06:02:21.802Z,2.00
2018-03-15T06:04:49.972Z,2.00
2018-03-15T06:07:18.870Z,2.00
2018-03-15T06:09:47.000Z,2.00
2018-03-15T06:12:15.153Z,2.00
2018-03-15T06:14:43.282Z,2.00
2018-03-15T06:17:12.221Z,1.90
2018-03-15T06:19:40.360Z,2.00
2018-03-15T06:22:08.510Z,2.00
2018-03-15T06:24:36.653Z,1.90
2018-03-15T06:27:04.810Z,1.90
2018-03-15T06:29:32.954Z,1.90
2018-03-15T06:32:01.115Z,1.90
2018-03-15T06:34:29.246Z,1.90
2018-03-15T06:36:57.403Z,1.90
2018-03-15T06:39:25.532Z,1.90
2018-03-15T06:41:53.692Z,1.90
2018-03-15T06:44:21.823Z,2.00
2018-03-15T06:46:49.988Z,2.00
2018-03-15T06:49:18.119Z,2.00
2018-03-15T06:51:46.274Z,2.00
2018-03-15T06:54:14.411Z,2.00
2018-03-15T06:56:42.556Z,2.00
2018-03-15T06:59:10.688Z,2.00
2018-03-15T07:01:38.848Z,2.00
2018-03-15T07:04:06.978Z,2.00
2018-03-15T07:06:35.131Z,2.00
2018-03-15T07:09:04.022Z,2.00
2018-03-15T07:11:32.169Z,2.20
2018-03-15T07:14:00.312Z,2.10
2018-03-15T07:16:28.476Z,2.10
2018-03-15T07:18:56.597Z,2.10
2018-03-15T07:21:24.746Z,2.10
2018-03-15T07:23:52.877Z,2.10
2018-03-15T07:26:21.183Z,2.10
2018-03-15T07:28:49.430Z,2.20
2018-03-15T07:31:17.593Z,2.20
2018-03-15T07:33:45.723Z,2.20
2018-03-15T07:36:13.852Z,2.20
2018-03-15T07:38:41.997Z,2.30
2018-03-15T07:41:10.117Z,2.30
2018-03-15T07:43:38.266Z,2.40
2018-03-15T07:46:06.395Z,2.40
2018-03-15T07:48:34.552Z,2.50
2018-03-15T07:51:02.684Z,2.50
2018-03-15T07:53:30.834Z,2.50
2018-03-15T07:55:58.979Z,2.50
2018-03-15T07:58:27.133Z,2.50
2018-03-15T08:00:55.253Z,2.50
2018-03-15T08:03:23.412Z,2.40
2018-03-15T08:05:51.541Z,2.50
2018-03-15T08:08:19.690Z,2.50
2018-03-15T08:10:48.581Z,2.50
2018-03-15T08:13:16.731Z,2.50
2018-03-15T08:15:44.856Z,2.50
2018-03-15T08:18:13.000Z,2.50
2018-03-15T08:20:41.127Z,2.50
2018-03-15T08:23:09.272Z,2.50
2018-03-15T08:25:37.398Z,2.60
2018-03-15T08:28:05.546Z,2.60
2018-03-15T08:30:33.678Z,2.60
2018-03-15T08:33:01.833Z,2.70
2018-03-15T08:35:29.994Z,2.70
2018-03-15T08:37:58.112Z,2.70
2018-03-15T08:40:26.263Z,2.80
2018-03-15T08:42:54.390Z,2.80
2018-03-15T08:45:22.538Z,2.80
2018-03-15T08:47:50.680Z,2.80
2018-03-15T08:50:19.609Z,2.80
2018-03-15T08:52:47.746Z,2.80
2018-03-15T08:55:16.665Z,2.80
2018-03-15T08:57:44.788Z,2.80
2018-03-15T09:00:12.960Z,2.80
2018-03-15T09:02:41.098Z,2.80
2018-03-15T09:05:09.250Z,2.80
2018-03-15T09:07:37.457Z,2.80
2018-03-15T09:10:06.312Z,2.80
2018-03-15T09:12:34.449Z,2.90
2018-03-15T09:15:02.609Z,2.90
2018-03-15T09:17:30.735Z,2.90
2018-03-15T09:19:58.896Z,2.90
2018-03-15T09:22:27.029Z,2.90
2018-03-15T09:24:55.174Z,3.00
2018-03-15T09:27:23.310Z,3.00
2018-03-15T09:29:51.458Z,3.00
2018-03-15T09:32:19.612Z,3.00
2018-03-15T09:34:47.794Z,3.00
2018-03-15T09:37:16.940Z,3.00
2018-03-15T09:39:45.129Z,3.00
2018-03-15T09:42:13.274Z,3.10
2018-03-15T09:44:41.457Z,3.10
2018-03-15T09:47:09.610Z,3.10
2018-03-15T09:49:37.777Z,3.00
2018-03-15T09:52:05.954Z,3.00
2018-03-15T09:54:34.125Z,3.00
2018-03-15T09:57:02.286Z,3.00
2018-03-15T09:59:30.434Z,3.00
2018-03-15T10:01:58.597Z,3.00
2018-03-15T10:04:26.745Z,2.90
2018-03-15T10:06:54.916Z,2.90
2018-03-15T10:09:23.058Z,2.90
2018-03-15T10:11:51.256Z,2.90
2018-03-15T10:14:19.405Z,2.90
2018-03-15T10:16:47.578Z,2.90
2018-03-15T10:19:15.713Z,2.90
2018-03-15T10:21:43.915Z,2.90
2018-03-15T10:24:12.091Z,2.90
2018-03-15T10:26:40.264Z,2.90
2018-03-15T10:29:08.405Z,2.90
2018-03-15T10:31:36.620Z,2.90
2018-03-15T10:34:04.785Z,2.90
2018-03-15T10:36:33.730Z,2.90
2018-03-15T10:39:01.886Z,2.90
2018-03-15T10:41:30.058Z,3.00
2018-03-15T10:43:58.200Z,3.00
2018-03-15T10:46:26.381Z,3.00
2018-03-15T10:48:55.300Z,3.10
2018-03-15T10:51:23.459Z,3.10
2018-03-15T10:53:51.610Z,3.10
2018-03-15T10:56:19.786Z,3.10
2018-03-15T10:58:47.933Z,3.20
2018-03-15T11:01:21.777Z,3.20
2018-03-15T11:03:49.936Z,3.20
2018-03-15T11:06:23.683Z,3.20
2018-03-15T11:08:57.419Z,3.20
2018-03-15T11:11:25.594Z,3.30
2018-03-15T11:13:53.738Z,3.30
2018-03-15T11:16:21.905Z,3.30
2018-03-15T11:18:50.050Z,3.30
2018-03-15T11:21:18.986Z,3.30
2018-03-15T11:23:47.183Z,3.30
2018-03-15T11:26:15.323Z,3.30
2018-03-15T11:28:43.477Z,3.30
2018-03-15T11:31:11.650Z,3.30
2018-03-15T11:33:39.797Z,3.40
2018-03-15T11:36:07.983Z,3.40
2018-03-15T11:38:36.123Z,3.40
2018-03-15T11:41:04.279Z,3.40
2018-03-15T11:43:32.459Z,3.40
2018-03-15T11:46:00.631Z,3.40
2018-03-15T11:48:28.806Z,3.40
2018-03-15T11:50:56.962Z,3.40
2018-03-15T11:53:25.140Z,3.40
2018-03-15T11:55:53.286Z,3.40
2018-03-15T11:58:22.223Z,3.40
2018-03-15T12:00:50.363Z,3.40
2018-03-15T12:03:19.293Z,3.50
2018-03-15T12:05:47.426Z,3.50
2018-03-15T12:08:15.608Z,3.40
2018-03-15T12:10:43.763Z,3.40
2018-03-15T12:13:11.938Z,3.40
2018-03-15T12:15:40.846Z,3.40
2018-03-15T12:18:09.010Z,3.30
2018-03-15T12:20:37.905Z,3.30
2018-03-15T12:23:06.059Z,3.40
2018-03-15T12:25:34.181Z,3.30
2018-03-15T12:28:02.340Z,3.40
2018-03-15T12:30:30.461Z,3.50
2018-03-15T12:32:58.616Z,3.50
2018-03-15T12:35:26.750Z,3.50
2018-03-15T12:37:55.662Z,3.50
2018-03-15T12:40:23.788Z,3.50
2018-03-15T12:42:51.933Z,3.60
2018-03-15T12:45:20.079Z,3.50
2018-03-15T12:47:48.239Z,3.50
2018-03-15T12:50:16.371Z,3.50
2018-03-15T12:52:44.506Z,3.50
2018-03-15T12:55:12.667Z,3.50
2018-03-15T12:57:40.805Z,3.50
2018-03-15T13:00:08.959Z,3.60
2018-03-15T13:02:37.088Z,3.60
2018-03-15T13:05:05.239Z,3.60
2018-03-15T13:07:33.380Z,3.70
2018-03-15T13:10:01.542Z,3.70
2018-03-15T13:12:29.674Z,3.70
2018-03-15T13:14:57.828Z,3.70
2018-03-15T13:17:25.980Z,3.70
2018-03-15T13:19:54.145Z,3.80
2018-03-15T13:22:22.288Z,3.80
2018-03-15T13:24:50.442Z,3.90
2018-03-15T13:27:18.576Z,3.90
2018-03-15T13:29:46.774Z,3.90
2018-03-15T13:32:15.662Z,3.90
2018-03-15T13:34:43.810Z,3.90
2018-03-15T13:37:11.938Z,3.90
2018-03-15T13:39:40.080Z,3.90
2018-03-15T13:42:08.215Z,3.90
2018-03-15T13:44:37.134Z,4.00
2018-03-15T13:47:05.272Z,4.00
2018-03-15T13:49:33.421Z,4.10
2018-03-15T13:52:01.611Z,4.20
2018-03-15T13:54:29.742Z,4.20
2018-03-15T13:56:57.873Z,4.30
2018-03-15T13:59:26.794Z,4.30
2018-03-15T14:01:54.941Z,4.30
2018-03-15T14:04:23.062Z,4.30
2018-03-15T14:06:51.214Z,4.20
2018-03-15T14:09:19.347Z,4.20
2018-03-15T14:11:47.489Z,4.20
2018-03-15T14:14:15.626Z,4.30
2018-03-15T14:16:43.769Z,4.30
2018-03-15T14:19:11.903Z,4.40
2018-03-15T14:21:40.058Z,4.50
2018-03-15T14:24:08.178Z,4.50
2018-03-15T14:26:36.337Z,4.50
2018-03-15T14:29:04.474Z,4.50
2018-03-15T14:31:33.398Z,4.40
2018-03-15T14:34:01.526Z,4.40
2018-03-15T14:36:29.675Z,4.40
2018-03-15T14:38:57.806Z,4.40
2018-03-15T14:41:25.958Z,4.30
2018-03-15T14:43:54.219Z,4.20
2018-03-15T14:46:22.276Z,4.20
2018-03-15T14:48:50.410Z,4.20
2018-03-15T14:51:18.558Z,4.10
2018-03-15T14:53:46.690Z,4.00
2018-03-15T14:56:14.846Z,4.00
2018-03-15T14:58:42.982Z,3.90
2018-03-15T15:01:11.130Z,3.90
2018-03-15T15:03:39.250Z,3.90
2018-03-15T15:06:07.479Z,3.90
2018-03-15T15:08:35.627Z,3.90
2018-03-15T15:11:03.834Z,3.90
2018-03-15T15:13:32.006Z,4.00
2018-03-15T15:16:00.126Z,4.00
2018-03-15T15:18:28.283Z,4.00
2018-03-15T15:20:56.420Z,4.00
2018-03-15T15:23:24.568Z,4.10
2018-03-15T15:25:52.693Z,4.30
2018-03-15T15:28:20.856Z,4.30
2018-03-15T15:30:48.981Z,4.30
2018-03-15T15:33:17.130Z,4.20
2018-03-15T15:35:45.262Z,4.00
2018-03-15T15:38:13.426Z,3.80
2018-03-15T15:40:41.577Z,3.60
2018-03-15T15:43:09.751Z,3.60
2018-03-15T15:45:37.890Z,3.50
2018-03-15T15:48:06.052Z,3.50
2018-03-15T15:50:34.209Z,3.50
2018-03-15T15:53:02.382Z,3.40
2018-03-15T15:55:30.615Z,3.40
2018-03-15T15:57:58.775Z,3.40
2018-03-15T16:00:26.944Z,3.40
2018-03-15T16:02:55.079Z,3.40
2018-03-15T16:05:23.260Z,3.30
2018-03-15T16:07:52.269Z,3.30
2018-03-15T16:10:21.198Z,3.20
2018-03-15T16:12:49.332Z,3.20
2018-03-15T16:15:18.245Z,3.10
2018-03-15T16:17:46.373Z,3.10
2018-03-15T16:20:14.548Z,3.00
2018-03-15T16:22:42.723Z,3.00
2018-03-15T16:25:10.951Z,2.90
2018-03-15T16:27:39.209Z,2.90
2018-03-15T16:30:07.514Z,2.90
2018-03-15T16:32:35.669Z,2.80
2018-03-15T16:35:03.834Z,2.80
2018-03-15T16:37:32.062Z,2.80
2018-03-15T16:40:00.208Z,2.70
2018-03-15T16:42:28.365Z,2.70
2018-03-15T16:44:56.515Z,2.70
2018-03-15T16:47:24.796Z,2.60
2018-03-15T16:49:52.931Z,2.60
2018-03-15T16:52:21.155Z,2.60
2018-03-15T16:54:49.290Z,2.50
2018-03-15T16:57:17.479Z,2.50
2018-03-15T16:59:45.628Z,2.50
2018-03-15T17:02:13.805Z,2.40
2018-03-15T17:04:41.958Z,2.40
2018-03-15T17:07:10.112Z,2.40
2018-03-15T17:09:38.243Z,2.30
2018-03-15T17:12:06.450Z,2.30
2018-03-15T17:14:34.590Z,2.30
2018-03-15T17:17:02.822Z,2.30
2018-03-15T17:19:30.966Z,2.30
2018-03-15T17:21:59.176Z,2.30
2018-03-15T17:24:27.334Z,2.30
2018-03-15T17:26:55.477Z,2.20
2018-03-15T17:29:23.648Z,2.20
2018-03-15T17:31:52.571Z,2.20
2018-03-15T17:34:20.729Z,2.40
2018-03-15T17:36:48.867Z,2.20
2018-03-15T17:39:17.026Z,2.20
2018-03-15T17:41:45.152Z,2.10
2018-03-15T17:44:13.575Z,2.10
2018-03-15T17:46:41.986Z,2.10
2018-03-15T17:49:10.170Z,2.10
2018-03-15T17:51:38.301Z,2.10
2018-03-15T17:54:07.540Z,2.10
2018-03-15T17:56:35.808Z,2.00
2018-03-15T17:59:04.278Z,2.00
2018-03-15T18:01:32.598Z,2.00
2018-03-15T18:04:00.835Z,2.00
2018-03-15T18:06:29.327Z,2.00
2018-03-15T18:08:57.530Z,1.90
2018-03-15T18:11:25.672Z,1.90
2018-03-15T18:13:53.877Z,1.90
2018-03-15T18:16:21.997Z,1.90
2018-03-15T18:18:50.132Z,1.90
2018-03-15T18:21:18.948Z,1.80
2018-03-15T18:23:47.259Z,1.80
2018-03-15T18:26:15.491Z,1.80
2018-03-15T18:28:43.641Z,1.80
2018-03-15T18:31:12.075Z,1.80
2018-03-15T18:33:40.502Z,1.80
2018-03-15T18:36:08.873Z,1.70
2018-03-15T18:38:37.535Z,1.70
2018-03-15T18:41:06.026Z,1.70
2018-03-15T18:43:34.362Z,1.70
2018-03-15T18:46:02.772Z,1.60
2018-03-15T18:48:30.969Z,1.60
2018-03-15T18:50:59.202Z,1.50
2018-03-15T18:53:27.439Z,1.40
2018-03-15T18:55:56.050Z,1.40
2018-03-15T18:58:24.794Z,1.40
2018-03-15T19:00:53.980Z,1.20
2018-03-15T19:03:23.724Z,1.20
2018-03-15T19:05:52.529Z,1.20
2018-03-15T19:08:20.850Z,1.30
2018-03-15T19:10:49.073Z,1.30
2018-03-15T19:13:17.429Z,1.40
2018-03-15T19:15:45.788Z,1.40
2018-03-15T19:18:13.958Z,1.50
2018-03-15T19:20:43.950Z,1.50
2018-03-15T19:23:12.257Z,1.50
2018-03-15T19:25:40.850Z,1.60
2018-03-15T19:28:09.014Z,1.60
2018-03-15T19:30:37.319Z,1.60
2018-03-15T19:33:05.542Z,1.60
2018-03-15T19:35:34.606Z,1.50
2018-03-15T19:38:03.414Z,1.40
2018-03-15T19:40:31.660Z,1.50
2018-03-15T19:42:59.874Z,1.40
2018-03-15T19:45:28.104Z,1.40
2018-03-15T19:47:56.640Z,1.40
2018-03-15T19:50:25.889Z,1.40
2018-03-15T19:52:54.050Z,1.40
2018-03-15T19:55:22.257Z,1.50
2018-03-15T19:57:50.634Z,1.50
2018-03-15T20:00:18.951Z,1.50
2018-03-15T20:02:47.479Z,1.50
2018-03-15T20:05:15.677Z,1.50
2018-03-15T20:07:44.251Z,1.50
2018-03-15T20:10:12.594Z,1.50
2018-03-15T20:12:40.848Z,1.50
2018-03-15T20:15:09.043Z,1.50
2018-03-15T20:17:37.370Z,1.50
2018-03-15T20:20:05.779Z,1.50
2018-03-15T20:22:39.771Z,1.50
2018-03-15T20:25:07.933Z,1.50
2018-03-15T20:27:41.949Z,1.50
2018-03-15T20:30:10.536Z,1.60
2018-03-15T20:32:44.327Z,1.50
2018-03-15T20:35:12.489Z,1.50
2018-03-15T20:37:40.653Z,1.60
2018-03-15T20:40:14.521Z,1.60
2018-03-15T20:42:42.685Z,1.60
2018-03-15T20:45:17.304Z,1.70
2018-03-15T20:47:51.174Z,1.60
2018-03-15T20:50:19.410Z,1.80
2018-03-15T20:52:47.565Z,1.70
2018-03-15T20:55:15.808Z,1.60
2018-03-15T20:57:44.046Z,1.60
2018-03-15T21:00:12.308Z,1.60
2018-03-15T21:02:40.471Z,1.60
2018-03-15T21:05:08.590Z,1.50
2018-03-15T21:07:36.775Z,1.50
2018-03-15T21:10:04.901Z,1.50
2018-03-15T21:12:33.060Z,1.40
2018-03-15T21:15:01.185Z,1.40
2018-03-15T21:17:29.404Z,1.40
2018-03-15T21:19:57.502Z,1.30
2018-03-15T21:22:25.621Z,1.30
2018-03-15T21:24:53.854Z,1.30
2018-03-15T21:27:21.992Z,1.30
2018-03-15T21:29:50.915Z,1.20
2018-03-15T21:32:19.046Z,1.20
2018-03-15T21:34:47.211Z,1.20
2018-03-15T21:37:15.337Z,1.20
2018-03-15T21:39:43.493Z,1.20
2018-03-15T21:42:11.623Z,1.20
2018-03-15T21:44:39.827Z,1.20
2018-03-15T21:47:07.922Z,1.20
2018-03-15T21:49:36.099Z,1.10
2018-03-15T21:52:04.257Z,1.10
2018-03-15T21:54:32.418Z,1.10
2018-03-15T21:57:00.545Z,1.10
2018-03-15T21:59:28.728Z,1.10
2018-03-15T22:01:56.872Z,1.10
2018-03-15T22:04:25.034Z,1.10
2018-03-15T22:06:53.162Z,1.10
2018-03-15T22:09:21.319Z,1.10
2018-03-15T22:11:49.499Z,1.10
2018-03-15T22:14:17.654Z,1.10
2018-03-15T22:16:45.787Z,1.10
2018-03-15T22:19:13.987Z,1.10
2018-03-15T22:21:42.158Z,1.10
2018-03-15T22:24:10.299Z,1.10
2018-03-15T22:26:38.455Z,1.10
2018-03-15T22:29:06.591Z,1.10
2018-03-15T22:31:34.752Z,1.10
2018-03-15T22:34:02.908Z,1.10
2018-03-15T22:36:31.077Z,1.10
2018-03-15T22:38:59.975Z,1.10
2018-03-15T22:41:28.130Z,1.00
2018-03-15T22:43:57.035Z,1.10
2018-03-15T22:46:25.190Z,1.00
2018-03-15T22:48:54.102Z,1.10
2018-03-15T22:51:22.342Z,0.90
2018-03-15T22:53:50.503Z,1.10
2018-03-15T22:56:18.691Z,1.10
2018-03-15T22:58:46.830Z,1.10
2018-03-15T23:01:15.043Z,1.10
2018-03-15T23:03:43.200Z,1.10
2018-03-15T23:06:11.364Z,1.00
2018-03-15T23:08:39.493Z,1.10
2018-03-15T23:11:07.676Z,1.00
2018-03-15T23:13:35.818Z,1.10
2018-03-15T23:16:04.830Z,1.00
2018-03-15T23:18:33.736Z,1.00
2018-03-15T23:21:01.897Z,1.00
2018-03-15T23:23:30.798Z,1.00
2018-03-15T23:25:58.956Z,1.00
2018-03-15T23:28:27.855Z,1.00
2018-03-15T23:30:56.023Z,1.00
2018-03-15T23:33:24.919Z,1.00
2018-03-15T23:35:53.053Z,1.00
2018-03-15T23:38:21.211Z,1.00
2018-03-15T23:40:49.350Z,1.00
2018-03-15T23:43:17.515Z,1.00
2018-03-15T23:45:45.651Z,0.90
2018-03-15T23:48:13.814Z,0.90
2018-03-15T23:50:41.956Z,0.90
2018-03-15T23:53:10.113Z,0.90
2018-03-15T23:55:38.245Z,0.90
2018-03-15T23:58:06.393Z,0.90
